Time;durP1;ratioP1;P1;durP2;ratioP2;P2;SDS_P1;SDS_P2;PMS_P1;PMS_P2;Temp;Humidity;BMP_temperature;BMP_pressure;BME280_temperature;BME280_humidity;BME280_pressure;Samples;Min_cycle;Max_cycle;Signal;HPM_P1;HPM_P2
2022/11/30 06:56:42;;;;;;;;;4.25;2.25;;;;;17.55;48.70;101959.56;5071336;27;45704;-84
2022/11/30 06:59:08;;;;;;;;;3.25;2.00;;;;;17.89;48.79;101961.84;5056240;27;45516;-82
2022/11/30 07:01:33;;;;;;;;;1.75;1.75;;;;;18.42;49.18;101970.00;5047772;28;45601;-82
2022/11/30 07:03:59;;;;;;;;;2.25;2.25;;;;;19.02;49.41;101963.25;5049317;27;45472;-83
2022/11/30 07:06:24;;;;;;;;;5.00;1.00;;;;;19.59;49.36;101961.03;5047700;28;45454;-83
2022/11/30 07:08:50;;;;;;;;;2.75;1.50;;;;;20.12;49.11;101960.72;5047849;27;45511;-81
2022/11/30 07:11:15;;;;;;;;;4.67;3.00;;;;;20.60;48.37;101968.88;5046236;28;45375;-85
2022/11/30 07:13:40;;;;;;;;;6.00;2.67;;;;;21.02;48.11;101974.59;5046139;28;45604;-81
2022/11/30 07:16:09;;;;;;;;;1.33;1.33;;;;;21.36;47.98;101968.31;5046789;28;54730;-85
2022/11/30 07:18:34;;;;;;;;;2.00;2.00;;;;;21.62;47.68;101969.88;5041865;28;46582;-82
2022/11/30 07:21:04;;;;;;;;;1.67;1.67;;;;;21.92;47.82;101966.53;5045132;28;45431;-81
2022/11/30 07:26:13;;;;;;;;;2.00;2.00;;;;;22.41;47.34;101974.19;5046255;28;45880;-82
2022/11/30 07:28:50;;;;;;;;;2.33;2.33;;;;;22.65;46.84;101978.50;5045133;27;45555;-81
2022/11/30 07:31:20;;;;;;;;;2.33;2.33;;;;;22.85;46.76;101984.88;5045472;27;45351;-84
2022/11/30 07:33:47;;;;;;;;;2.00;2.00;;;;;23.01;46.67;101987.09;5045989;28;45501;-79
2022/11/30 07:36:13;;;;;;;;;2.67;2.00;;;;;23.17;46.38;101991.16;5044796;28;46049;-80
2022/11/30 07:38:39;;;;;;;;;3.00;1.33;;;;;23.29;46.01;101992.78;5046381;28;45431;-83
2022/11/30 07:41:04;;;;;;;;;2.00;2.00;;;;;23.43;46.28;101988.00;5045926;27;45907;-83
2022/11/30 07:43:30;;;;;;;;;2.00;2.00;;;;;23.54;45.84;101998.72;5046550;27;45424;-79
2022/11/30 07:45:55;;;;;;;;;1.00;1.00;;;;;23.63;45.78;102004.31;5043943;27;45815;-84
2022/11/30 07:48:21;;;;;;;;;2.00;2.00;;;;;23.74;45.65;102003.34;5046424;27;45486;-91
2022/11/30 07:50:47;;;;;;;;;3.00;3.00;;;;;23.82;45.52;102000.78;5046195;27;45485;-87
2022/11/30 07:53:12;;;;;;;;;1.33;1.33;;;;;23.90;45.56;102010.91;5044893;28;45594;-80
2022/11/30 07:55:37;;;;;;;;;2.33;2.33;;;;;23.95;45.40;102000.53;5044045;27;48485;-81
2022/11/30 07:58:03;;;;;;;;;1.00;1.00;;;;;24.03;45.57;102008.81;5046307;28;45419;-79
2022/11/30 08:00:28;;;;;;;;;1.00;1.00;;;;;24.11;45.53;101999.16;5045105;28;45490;-81
2022/11/30 08:02:53;;;;;;;;;3.00;3.00;;;;;24.22;45.20;102012.56;5032969;27;45452;-80
2022/11/30 08:05:18;;;;;;;;;2.67;2.00;;;;;24.33;45.04;101998.00;5045963;28;45932;-80
2022/11/30 08:07:44;;;;;;;;;2.33;1.67;;;;;24.45;45.04;102004.97;5034388;27;45624;-80
2022/11/30 08:10:10;;;;;;;;;2.67;2.00;;;;;24.56;45.23;102012.13;5032540;28;45657;-81
2022/11/30 08:12:36;;;;;;;;;2.00;2.00;;;;;24.70;44.97;102012.66;5031636;27;45497;-94
2022/11/30 08:15:01;;;;;;;;;2.00;2.00;;;;;24.82;44.73;102016.94;5032609;28;45797;-94
2022/11/30 08:17:26;;;;;;;;;4.00;3.00;;;;;24.94;44.47;102014.94;5033640;27;45431;-87
2022/11/30 08:19:51;;;;;;;;;3.00;3.00;;;;;25.06;44.64;102018.31;5033317;28;45466;-96
2022/11/30 08:22:17;;;;;;;;;3.00;1.67;;;;;25.16;44.17;102018.28;5033771;27;45512;-94
2022/11/30 08:24:42;;;;;;;;;3.67;2.00;;;;;25.23;44.41;102015.81;5021142;28;59976;-80
2022/11/30 08:27:07;;;;;;;;;3.00;3.00;;;;;25.29;44.31;102019.81;5028981;28;50945;-92
2022/11/30 08:29:33;;;;;;;;;2.33;2.33;;;;;25.31;44.08;102021.38;5030772;28;51700;-93
2022/11/30 08:31:58;;;;;;;;;3.67;3.67;;;;;25.37;44.24;102026.22;5034311;27;45491;-94
2022/11/30 08:34:25;;;;;;;;;2.67;2.67;;;;;25.39;43.95;102016.03;5027167;28;45481;-81
2022/11/30 08:36:51;;;;;;;;;3.67;2.33;;;;;25.40;43.76;102014.19;5007179;27;45429;-82
2022/11/30 08:39:16;;;;;;;;;1.33;1.33;;;;;25.40;43.89;102014.19;5022561;27;45331;-81
2022/11/30 08:41:41;;;;;;;;;1.00;1.00;;;;;25.41;43.64;102015.88;5023130;27;45454;-83
2022/11/30 08:44:07;;;;;;;;;3.00;3.00;;;;;25.41;43.61;102015.88;5029980;28;47809;-80
2022/11/30 08:46:32;;;;;;;;;2.33;2.33;;;;;25.39;43.39;102024.19;5027827;28;45430;-80
2022/11/30 08:48:58;;;;;;;;;2.00;2.00;;;;;25.41;43.48;102018.59;5032067;28;45428;-82
2022/11/30 08:51:23;;;;;;;;;1.33;1.33;;;;;25.44;43.35;102026.47;5031093;27;46312;-84
2022/11/30 08:53:49;;;;;;;;;1.67;1.67;;;;;25.45;43.22;102016.44;5030165;27;45845;-82
2022/11/30 08:56:17;;;;;;;;;1.67;1.67;;;;;25.55;43.46;102025.44;5029310;28;45388;-79
2022/11/30 08:58:44;;;;;;;;;2.00;2.00;;;;;25.62;43.53;102017.50;5030138;27;46732;-81
2022/11/30 09:01:13;;;;;;;;;2.00;2.00;;;;;25.70;43.74;102025.78;5031043;27;45522;-80
2022/11/30 09:03:39;;;;;;;;;1.33;1.33;;;;;25.77;43.36;102017.88;5032369;28;46439;-80
2022/11/30 09:06:13;;;;;;;;;1.67;1.67;;;;;25.86;43.35;102016.06;5028796;28;45652;-87
2022/11/30 09:08:40;;;;;;;;;4.00;2.00;;;;;25.90;43.37;102015.63;5033275;28;45404;-85
2022/11/30 09:11:22;;;;;;;;;1.67;1.67;;;;;26.02;43.37;102029.88;5027977;27;45468;-87
2022/11/30 09:13:48;;;;;;;;;2.00;1.67;;;;;26.10;43.35;102030.94;5031706;28;46358;-80
2022/11/30 09:16:16;;;;;;;;;2.33;2.33;;;;;26.14;43.30;102026.91;5030895;28;45459;-80
2022/11/30 09:18:42;;;;;;;;;2.00;2.00;;;;;26.17;43.08;102032.88;5014639;27;45418;-82
2022/11/30 09:21:10;;;;;;;;;2.67;2.33;;;;;26.20;42.66;102033.59;5031198;27;45539;-82
2022/11/30 09:23:37;;;;;;;;;2.00;2.00;;;;;26.20;42.92;102042.63;5031541;28;47338;-84
2022/11/30 09:26:06;;;;;;;;;3.00;2.00;;;;;26.20;42.15;102042.63;5030523;28;45822;-81
2022/11/30 09:28:32;;;;;;;;;2.00;2.00;;;;;26.20;42.57;102039.91;5030634;28;45465;-81
2022/11/30 09:31:02;;;;;;;;;1.67;1.67;;;;;26.22;42.70;102047.88;5035662;27;45432;-85
2022/11/30 09:33:28;;;;;;;;;1.67;1.67;;;;;26.20;42.28;102045.34;5031512;28;46683;-88
2022/11/30 09:36:17;;;;;;;;;3.00;3.00;;;;;26.19;42.47;102040.91;5029614;27;45543;-82
2022/11/30 09:38:43;;;;;;;;;1.00;1.00;;;;;26.18;42.41;102044.63;5028423;28;45461;-81
2022/11/30 09:41:14;;;;;;;;;2.00;2.00;;;;;26.18;42.43;102048.22;5033861;28;45403;-82
2022/11/30 09:43:54;;;;;;;;;2.50;2.50;;;;;26.21;42.42;102047.06;5031141;28;46147;-81
2022/11/30 09:46:36;;;;;;;;;2.00;2.00;;;;;26.25;42.39;102043.06;5029049;27;45845;-81
2022/11/30 09:49:03;;;;;;;;;2.00;2.00;;;;;26.31;42.22;102042.41;5031924;27;45464;-88
2022/11/30 09:51:40;;;;;;;;;2.00;2.00;;;;;26.37;42.54;102042.81;5031930;28;45760;-79
2022/11/30 09:54:12;;;;;;;;;3.00;3.00;;;;;26.39;42.27;102036.19;5031595;28;46873;-80
2022/11/30 09:56:39;;;;;;;;;1.67;1.67;;;;;26.44;42.47;102047.47;5030969;27;45364;-77
2022/11/30 09:59:13;;;;;;;;;2.33;2.33;;;;;26.48;42.04;102033.53;5051099;27;45435;-78
2022/11/30 10:01:39;;;;;;;;;2.67;2.00;;;;;26.51;42.29;102038.66;5030565;28;45452;-78
2022/11/30 10:04:05;;;;;;;;;2.67;2.67;;;;;26.52;42.17;102037.66;5031027;28;45955;-77
2022/11/30 10:07:02;;;;;;;;;4.33;2.00;;;;;26.52;42.45;102038.50;5031900;28;45528;-80
2022/11/30 10:09:49;;;;;;;;;2.33;2.33;;;;;26.53;42.25;102042.94;5036782;27;45694;-78
2022/11/30 10:13:07;;;;;;;;;3.00;1.33;;;;;26.53;42.28;102042.09;5031389;28;45430;-82
2022/11/30 10:15:32;;;;;;;;;2.33;1.00;;;;;26.52;42.24;102041.22;4941577;28;45965;-83
2022/11/30 10:18:18;;;;;;;;;2.00;2.00;;;;;26.50;42.19;102040.53;4932007;28;45453;-84
2022/11/30 10:20:50;;;;;;;;;4.67;3.00;;;;;26.48;41.76;102045.28;4942230;28;45488;-84
2022/11/30 10:23:45;;;;;;;;;4.00;4.00;;;;;26.47;42.43;102040.84;4934684;28;45810;-83
2022/11/30 10:26:15;;;;;;;;;5.00;3.00;;;;;26.51;42.36;102052.25;4948691;28;46212;-80
2022/11/30 10:28:50;;;;;;;;;3.00;2.00;;;;;26.53;42.46;102040.19;4936641;28;45547;-79
2022/11/30 10:31:17;;;;;;;;;3.00;2.33;;;;;26.57;41.72;102038.03;4934136;28;45600;-82
2022/11/30 10:33:47;;;;;;;;;2.33;2.33;;;;;26.63;42.34;102033.81;4938977;28;45439;-80
2022/11/30 10:36:26;;;;;;;;;3.67;3.67;;;;;26.69;42.12;102041.38;4943016;28;45403;-82
2022/11/30 10:38:59;;;;;;;;;2.00;2.00;;;;;26.73;41.96;102029.13;4921120;28;45377;-80
2022/11/30 10:41:31;;;;;;;;;4.00;2.00;;;;;26.75;41.61;102024.38;4943212;28;45421;-82
2022/11/30 10:44:23;;;;;;;;;3.67;3.67;;;;;26.78;42.09;102023.22;4938614;28;45929;-81
2022/11/30 10:47:04;;;;;;;;;2.67;2.67;;;;;26.76;41.63;102020.63;4937577;28;45503;-82
2022/11/30 10:49:31;;;;;;;;;3.00;2.00;;;;;26.74;42.13;102010.91;4936327;28;45538;-80
2022/11/30 10:52:04;;;;;;;;;3.00;3.00;;;;;26.71;42.12;102012.09;4998828;28;45437;-84
2022/11/30 10:54:30;;;;;;;;;2.00;2.00;;;;;26.72;42.20;102012.97;5031326;28;45416;-87
2022/11/30 10:56:59;;;;;;;;;2.33;2.33;;;;;26.72;41.79;102004.78;5026032;27;46022;-83
2022/11/30 10:59:33;;;;;;;;;1.67;1.67;;;;;26.72;41.90;102008.34;5026583;27;45493;-81
2022/11/30 11:01:58;;;;;;;;;3.00;3.00;;;;;26.73;41.64;102009.22;5029906;28;45492;-82
2022/11/30 11:04:26;;;;;;;;;2.00;2.00;;;;;26.68;41.93;102010.53;5029320;28;53202;-87
2022/11/30 11:07:06;;;;;;;;;3.00;3.00;;;;;26.61;41.84;102000.47;5032074;28;45521;-82
2022/11/30 11:09:39;;;;;;;;;3.67;3.67;;;;;26.52;41.20;101994.94;5024089;27;46096;-82
2022/11/30 11:12:24;;;;;;;;;2.00;2.00;;;;;26.49;41.68;101999.84;5029854;27;45497;-82
2022/11/30 11:15:21;;;;;;;;;6.00;3.33;;;;;26.43;41.31;101995.88;5028632;28;45877;-83
2022/11/30 11:17:46;;;;;;;;;3.33;3.33;;;;;26.41;41.69;101995.22;5033985;27;47457;-82
2022/11/30 11:20:26;;;;;;;;;4.33;3.00;;;;;26.40;41.19;101994.34;5036713;28;45754;-83
2022/11/30 11:22:51;;;;;;;;;4.67;4.67;;;;;26.38;41.68;101988.22;5014222;28;45466;-95
2022/11/30 11:25:33;;;;;;;;;3.00;3.00;;;;;26.38;41.85;101982.78;5031684;28;45390;-94
2022/11/30 11:28:17;;;;;;;;;5.67;4.00;;;;;26.39;41.80;101987.19;5041059;28;46437;-94
2022/11/30 11:30:43;;;;;;;;;3.00;3.00;;;;;26.38;41.47;101993.66;5030132;28;45494;-95
2022/11/30 11:33:11;;;;;;;;;5.67;5.67;;;;;26.38;41.23;101998.22;5037109;28;45621;-92
2022/11/30 11:35:36;;;;;;;;;3.00;3.00;;;;;26.37;41.05;101982.91;5027581;28;45536;-83
2022/11/30 11:38:04;;;;;;;;;3.67;3.67;;;;;26.35;41.17;101983.06;5030938;27;45468;-83
2022/11/30 11:40:29;;;;;;;;;5.33;4.33;;;;;26.36;41.61;101989.38;5030144;28;45409;-83
2022/11/30 11:42:57;;;;;;;;;4.33;4.00;;;;;26.36;41.41;101984.78;5033259;28;45395;-84
2022/11/30 11:45:29;;;;;;;;;3.67;3.00;;;;;26.38;41.04;101988.22;5047072;28;45399;-84
2022/11/30 11:48:01;;;;;;;;;4.00;4.00;;;;;26.40;41.16;101986.16;5025052;28;46178;-81
2022/11/30 11:50:32;;;;;;;;;5.00;5.00;;;;;26.39;41.47;101983.59;5028715;28;45456;-80
2022/11/30 11:53:22;;;;;;;;;5.33;4.33;;;;;26.38;40.96;101985.50;4999727;28;45435;-87
2022/11/30 11:55:56;;;;;;;;;4.00;4.00;;;;;26.37;41.07;101972.03;5023865;28;45455;-82
2022/11/30 11:58:31;;;;;;;;;4.33;3.67;;;;;26.36;41.34;101973.88;5023151;28;46027;-83
2022/11/30 12:01:01;;;;;;;;;4.33;4.00;;;;;26.36;40.86;101982.06;5039198;27;45547;-78
2022/11/30 12:03:44;;;;;;;;;4.33;3.00;;;;;26.35;40.76;101979.50;5014262;28;45432;-79
2022/11/30 12:06:13;;;;;;;;;3.33;3.33;;;;;26.38;41.62;101980.06;5028711;28;45497;-79
2022/11/30 12:09:02;;;;;;;;;2.00;2.00;;;;;26.41;41.41;101976.16;5030404;27;45573;-78
2022/11/30 12:11:41;;;;;;;;;5.00;5.00;;;;;26.43;40.87;101976.84;5033153;28;45449;-79
2022/11/30 12:14:18;;;;;;;;;4.00;4.00;;;;;26.45;40.75;101974.81;5021491;28;45418;-78
2022/11/30 12:17:06;;;;;;;;;5.00;5.00;;;;;26.45;41.17;101977.56;5034047;28;48329;-79
2022/11/30 12:19:45;;;;;;;;;4.00;4.00;;;;;26.44;40.69;101982.13;5043406;27;45799;-78
2022/11/30 12:22:24;;;;;;;;;4.33;4.33;;;;;26.45;40.58;101974.81;5032194;28;45367;-79
2022/11/30 12:25:17;;;;;;;;;2.67;2.67;;;;;26.44;40.96;101976.69;5034593;28;45605;-78
2022/11/30 12:27:54;;;;;;;;;4.00;3.00;;;;;26.38;40.64;101974.59;5026669;28;45260;-78
2022/11/30 12:30:24;;;;;;;;;6.33;5.33;;;;;26.34;40.95;101967.75;5027173;27;46430;-78
2022/11/30 12:33:08;;;;;;;;;5.00;5.00;;;;;26.30;40.45;101978.13;5037413;27;45302;-82
2022/11/30 12:35:44;;;;;;;;;4.00;4.00;;;;;26.26;40.58;101971.28;5021318;28;45404;-79
2022/11/30 12:38:40;;;;;;;;;5.00;3.00;;;;;26.21;40.57;101979.03;5020872;28;45489;-81
2022/11/30 12:41:29;;;;;;;;;3.33;3.33;;;;;26.16;40.66;101984.09;5031969;27;45700;-83
2022/11/30 12:44:19;;;;;;;;;5.00;5.00;;;;;26.08;40.72;101987.59;5015198;27;45504;-84
2022/11/30 12:46:51;;;;;;;;;4.00;4.00;;;;;26.02;40.43;101983.63;5015244;27;46650;-85
2022/11/30 12:49:16;;;;;;;;;5.00;5.00;;;;;25.98;40.70;101968.63;5030780;27;45507;-82
2022/11/30 12:51:53;;;;;;;;;4.33;4.33;;;;;25.98;40.45;101976.78;5027386;27;45470;-83
2022/11/30 12:54:41;;;;;;;;;3.00;3.00;;;;;26.00;41.04;101968.47;5033584;27;45507;-82
2022/11/30 12:57:34;;;;;;;;;6.67;6.00;;;;;26.01;40.65;101978.34;5011921;28;45357;-85
2022/11/30 13:00:11;;;;;;;;;4.00;4.00;;;;;25.98;40.72;101976.78;5013985;28;45394;-80
2022/11/30 13:03:01;;;;;;;;;4.33;4.33;;;;;25.94;40.44;101972.66;5020487;27;45330;-81
2022/11/30 13:05:51;;;;;;;;;3.00;3.00;;;;;25.89;40.57;101978.56;5013146;28;45372;-80
2022/11/30 13:08:41;;;;;;;;;4.00;4.00;;;;;25.90;40.82;101982.13;5018771;28;45347;-78
2022/11/30 13:11:15;;;;;;;;;2.33;2.33;;;;;25.87;40.47;101975.13;5013552;28;45439;-81
2022/11/30 13:13:49;;;;;;;;;4.33;4.00;;;;;25.87;40.51;101982.47;5025534;27;45478;-79
2022/11/30 13:16:15;;;;;;;;;2.33;2.33;;;;;25.83;41.06;101973.72;5031121;27;45482;-79
2022/11/30 13:18:41;;;;;;;;;4.00;3.33;;;;;25.85;40.65;101979.03;5053801;27;45576;-83
2022/11/30 13:21:37;;;;;;;;;3.33;3.33;;;;;25.85;40.77;101976.31;5026787;28;45426;-79
2022/11/30 13:24:21;;;;;;;;;4.00;4.00;;;;;25.87;40.77;101983.28;5029170;27;45523;-82
2022/11/30 13:27:02;;;;;;;;;4.00;3.33;;;;;25.88;40.79;101985.00;5027502;27;45512;-82
2022/11/30 13:30:05;;;;;;;;;4.50;4.00;;;;;25.88;40.51;101979.56;5029037;28;45491;-81
2022/11/30 13:32:34;;;;;;;;;3.67;2.00;;;;;25.86;40.60;101981.59;5026871;27;45538;-81
2022/11/30 13:35:27;;;;;;;;;5.33;5.33;;;;;25.88;40.67;101987.72;5027601;28;46232;-87
2022/11/30 13:38:10;;;;;;;;;4.00;4.00;;;;;25.89;40.46;101984.00;5025144;28;45315;-78
2022/11/30 13:40:36;;;;;;;;;3.67;3.67;;;;;25.90;41.15;101985.72;5024614;28;45515;-83
2022/11/30 13:43:01;;;;;;;;;4.33;4.33;;;;;25.89;40.54;101981.28;5030702;27;45430;-86
2022/11/30 13:45:33;;;;;;;;;4.00;4.00;;;;;25.91;40.82;101984.69;5030382;27;45824;-83
2022/11/30 13:48:16;;;;;;;;;3.33;3.33;;;;;25.88;40.49;101971.41;5026961;28;45570;-78
2022/11/30 13:50:46;;;;;;;;;3.50;3.50;;;;;25.87;41.06;101972.41;5025879;28;45359;-81
2022/11/30 13:53:21;;;;;;;;;6.00;4.67;;;;;25.90;40.88;101983.00;5030513;27;45486;-81
2022/11/30 13:55:46;;;;;;;;;3.67;3.67;;;;;25.91;40.55;101979.25;5035568;27;45578;-84
2022/11/30 13:58:14;;;;;;;;;5.67;4.00;;;;;25.93;40.95;101979.09;5027036;28;45319;-81
2022/11/30 14:00:39;;;;;;;;;4.33;4.00;;;;;25.91;41.12;101979.25;5029543;28;45427;-80
2022/11/30 14:03:24;;;;;;;;;2.00;2.00;;;;;25.89;40.58;101984.00;5030954;27;45527;-80
2022/11/30 14:05:50;;;;;;;;;3.00;3.00;;;;;25.90;40.84;101993.88;5026043;28;45514;-88
2022/11/30 14:08:31;;;;;;;;;3.67;3.33;;;;;25.91;40.82;101990.13;5018105;27;46104;-84
2022/11/30 14:11:35;;;;;;;;;4.67;4.00;;;;;25.98;41.25;102000.38;5028175;28;45590;-81
2022/11/30 14:14:58;;;;;;;;;4.00;4.00;;;;;26.00;40.83;101993.78;5035518;27;45373;-81
2022/11/30 14:17:32;;;;;;;;;6.33;5.33;;;;;25.98;41.04;101990.38;5056298;27;46480;-81
2022/11/30 14:20:06;;;;;;;;;5.00;4.00;;;;;25.98;40.54;101995.81;5063554;28;45822;-83
2022/11/30 14:22:32;;;;;;;;;4.00;3.67;;;;;26.03;41.06;101995.34;5066583;27;45891;-86
2022/11/30 14:24:58;;;;;;;;;3.67;3.67;;;;;26.03;41.06;101988.03;5067235;28;45618;-86
2022/11/30 14:27:26;;;;;;;;;4.00;4.00;;;;;26.02;40.35;101980.03;5071985;28;47067;-79
2022/11/30 14:29:56;;;;;;;;;4.67;4.33;;;;;26.04;40.47;101986.19;5070411;28;45439;-79
2022/11/30 14:32:34;;;;;;;;;4.00;4.00;;;;;26.05;41.00;101999.63;5060017;27;45416;-80
2022/11/30 14:35:06;;;;;;;;;3.00;3.00;;;;;26.06;40.70;101992.31;5073082;28;45385;-79
2022/11/30 14:37:39;;;;;;;;;5.00;3.00;;;;;26.08;40.44;101995.75;5059293;28;45992;-79
2022/11/30 14:40:06;;;;;;;;;5.00;3.00;;;;;26.10;40.96;101995.56;5056138;28;45437;-81
2022/11/30 14:42:33;;;;;;;;;6.00;3.00;;;;;26.12;40.80;102002.56;5064275;28;47077;-84
2022/11/30 14:44:58;;;;;;;;;4.33;3.33;;;;;26.12;40.87;102002.56;5066675;28;45477;-85
2022/11/30 14:47:28;;;;;;;;;5.00;3.67;;;;;26.13;40.34;101998.00;5057141;28;45864;-85
2022/11/30 14:49:55;;;;;;;;;7.67;5.00;;;;;26.08;40.45;102000.31;5028071;28;45491;-83
2022/11/30 14:52:41;;;;;;;;;8.67;6.67;;;;;26.02;40.13;101997.22;5018364;28;45895;-81
2022/11/30 14:55:31;;;;;;;;;4.67;3.33;;;;;26.01;40.49;102005.53;5017932;27;46774;-82
2022/11/30 14:58:02;;;;;;;;;3.00;3.00;;;;;26.01;40.32;102005.53;5027835;27;45460;-82
2022/11/30 15:00:28;;;;;;;;;4.00;2.33;;;;;25.98;40.87;102008.56;5027424;28;45523;-81
2022/11/30 15:02:54;;;;;;;;;3.67;3.67;;;;;25.95;40.97;102006.16;5031991;28;45405;-82
2022/11/30 15:05:22;;;;;;;;;3.00;3.00;;;;;25.98;40.55;102017.56;5026058;28;45458;-80
2022/11/30 15:07:49;;;;;;;;;1.67;1.67;;;;;26.02;40.54;102013.53;5027177;28;45500;-79
2022/11/30 15:10:22;;;;;;;;;3.00;3.00;;;;;26.04;40.39;102016.94;5029149;28;45446;-79
2022/11/30 15:12:48;;;;;;;;;4.00;4.00;;;;;26.08;40.57;102024.81;5030414;27;45472;-80
2022/11/30 15:15:14;;;;;;;;;4.00;4.00;;;;;26.10;40.91;102018.22;5030550;28;45529;-80
2022/11/30 15:18:12;;;;;;;;;4.33;4.33;;;;;26.12;40.97;102018.88;5032773;27;45949;-79
2022/11/30 15:20:43;;;;;;;;;4.00;4.00;;;;;26.13;40.55;102017.91;5029488;27;45404;-79
2022/11/30 15:23:15;;;;;;;;;3.67;3.67;;;;;26.14;40.30;102022.34;5022069;28;45732;-80
2022/11/30 15:25:51;;;;;;;;;2.00;2.00;;;;;26.15;40.66;102021.31;5029434;28;45468;-79
2022/11/30 15:28:30;;;;;;;;;3.00;3.00;;;;;26.16;40.66;102023.00;5030526;28;45683;-79
2022/11/30 15:31:00;;;;;;;;;3.67;3.67;;;;;26.14;40.23;102002.41;5034507;28;45519;-79
2022/11/30 15:33:35;;;;;;;;;4.00;4.00;;;;;26.15;40.13;102007.72;5025122;28;45524;-80
2022/11/30 15:36:02;;;;;;;;;2.00;2.00;;;;;26.14;40.16;102010.56;5028664;27;45445;-80
2022/11/30 15:38:28;;;;;;;;;4.00;3.00;;;;;26.13;40.26;102014.31;5023406;28;45547;-79
2022/11/30 15:41:06;;;;;;;;;4.33;3.67;;;;;26.12;40.48;102012.63;5033132;28;45489;-79
2022/11/30 15:43:37;;;;;;;;;6.33;4.67;;;;;26.11;40.10;102019.06;5025759;27;45425;-79
2022/11/30 15:46:03;;;;;;;;;4.67;4.00;;;;;26.10;40.13;102009.19;5025336;28;45530;-80
2022/11/30 15:48:36;;;;;;;;;4.33;3.33;;;;;26.09;40.32;102015.63;5103003;27;46392;-80
2022/11/30 15:51:02;;;;;;;;;3.00;3.00;;;;;26.08;40.21;102017.53;5034306;27;45699;-79
2022/11/30 15:53:48;;;;;;;;;3.00;3.00;;;;;26.07;40.47;102015.78;5026833;27;45872;-82
2022/11/30 15:56:26;;;;;;;;;6.00;3.00;;;;;26.03;40.42;102014.38;5024885;27;45434;-83
2022/11/30 15:59:05;;;;;;;;;6.00;4.33;;;;;25.99;40.67;102008.41;5024326;28;46066;-82
2022/11/30 16:02:00;;;;;;;;;3.00;3.00;;;;;26.03;40.00;102006.22;5012017;28;45718;-82
2022/11/30 16:04:25;;;;;;;;;4.00;3.00;;;;;26.03;40.26;102009.81;5031450;28;45704;-81
2022/11/30 16:06:50;;;;;;;;;4.00;3.33;;;;;26.05;40.16;102001.50;5036805;28;45438;-90
2022/11/30 16:09:31;;;;;;;;;4.00;4.00;;;;;26.08;40.08;102011.22;5012110;27;48201;-86
2022/11/30 16:11:58;;;;;;;;;2.67;2.67;;;;;26.08;40.25;102005.78;5031950;28;45408;-89
2022/11/30 16:14:23;;;;;;;;;5.00;5.00;;;;;26.08;39.93;102014.81;5030279;28;45624;-88
2022/11/30 16:16:49;;;;;;;;;3.00;3.00;;;;;26.09;39.83;102012.91;5032499;28;45430;-86
2022/11/30 16:19:15;;;;;;;;;4.00;4.00;;;;;26.09;40.15;102019.22;5022027;27;45389;-88
2022/11/30 16:21:41;;;;;;;;;5.00;5.00;;;;;26.09;40.26;102019.22;5030413;28;45404;-85
2022/11/30 16:24:12;;;;;;;;;2.33;2.33;;;;;26.08;39.83;102024.81;5037479;28;45412;-83
2022/11/30 16:26:37;;;;;;;;;4.33;4.33;;;;;26.05;40.42;102029.56;5033366;27;47144;-79
2022/11/30 16:29:03;;;;;;;;;2.00;2.00;;;;;26.02;40.12;102031.72;5027111;28;46899;-81
2022/11/30 16:31:28;;;;;;;;;4.00;4.00;;;;;25.97;39.76;102020.44;5020338;28;45472;-81
2022/11/30 16:33:54;;;;;;;;;5.00;5.00;;;;;25.89;40.12;102024.81;5027729;27;45748;-85
2022/11/30 16:36:20;;;;;;;;;4.00;4.00;;;;;25.86;39.94;102033.25;5021317;28;46489;-86
2022/11/30 16:38:48;;;;;;;;;5.00;4.00;;;;;25.83;39.95;102040.88;5032334;28;46435;-87
2022/11/30 16:41:23;;;;;;;;;6.33;5.00;;;;;25.75;39.98;102031.59;5028578;28;45422;-82
2022/11/30 16:43:50;;;;;;;;;6.00;6.00;;;;;25.69;39.93;102036.78;5032820;28;45766;-83
2022/11/30 16:46:24;;;;;;;;;3.00;3.00;;;;;25.58;39.93;102035.16;5030247;28;45484;-82
2022/11/30 16:48:51;;;;;;;;;5.00;5.00;;;;;25.46;39.52;102040.75;5032021;28;45547;-83
2022/11/30 16:51:25;;;;;;;;;6.00;4.33;;;;;25.37;39.91;102028.91;5014282;27;45436;-83
2022/11/30 16:53:50;;;;;;;;;4.00;4.00;;;;;25.28;40.02;102029.81;5033647;28;45437;-83
2022/11/30 16:56:16;;;;;;;;;3.00;3.00;;;;;25.23;39.78;102029.41;5014632;28;45574;-84
2022/11/30 16:58:42;;;;;;;;;5.00;5.00;;;;;25.20;39.93;102040.56;5014009;28;47904;-84
2022/11/30 17:01:14;;;;;;;;;5.67;4.00;;;;;25.17;39.59;102046.31;5018576;27;47199;-82
2022/11/30 17:03:40;;;;;;;;;7.00;4.67;;;;;25.11;39.79;102031.47;5029245;28;45688;-84
2022/11/30 17:06:12;;;;;;;;;5.33;5.33;;;;;25.12;39.97;102047.63;5048228;27;46142;-80
2022/11/30 17:08:38;;;;;;;;;5.00;5.00;;;;;25.16;39.94;102044.59;5027136;28;45520;-82
2022/11/30 17:11:03;;;;;;;;;7.00;5.33;;;;;25.19;39.97;102047.00;5023221;27;45556;-78
2022/11/30 17:13:29;;;;;;;;;6.67;5.67;;;;;25.20;40.09;102046.88;5038816;27;45542;-79
2022/11/30 17:15:54;;;;;;;;;6.00;6.00;;;;;25.24;39.65;102048.28;5029260;28;45419;-79
2022/11/30 17:18:19;;;;;;;;;5.33;5.33;;;;;25.27;39.94;102045.25;5030637;27;60240;-77
2022/11/30 17:20:45;;;;;;;;;5.00;5.00;;;;;25.30;40.00;102051.41;5012771;28;45421;-78
2022/11/30 17:23:10;;;;;;;;;3.67;2.67;;;;;25.34;40.06;102050.94;5028774;28;45560;-80
2022/11/30 17:25:35;;;;;;;;;3.67;3.67;;;;;25.38;39.98;102049.66;5027723;28;45476;-78
2022/11/30 17:28:01;;;;;;;;;4.00;4.00;;;;;25.43;40.10;102053.78;5031465;28;55881;-79
2022/11/30 17:30:26;;;;;;;;;3.00;3.00;;;;;25.49;39.88;102051.31;5021007;27;45374;-79
2022/11/30 17:32:52;;;;;;;;;3.67;3.67;;;;;25.57;40.21;102047.00;5025449;28;45451;-79
2022/11/30 17:35:18;;;;;;;;;4.67;4.67;;;;;25.65;40.07;102047.13;5023790;27;45628;-82
2022/11/30 17:37:43;;;;;;;;;4.00;4.00;;;;;25.74;39.74;102048.06;5026451;28;45989;-83
2022/11/30 17:40:14;;;;;;;;;7.67;3.67;;;;;25.83;40.00;102055.31;5028867;28;45485;-80
2022/11/30 17:42:41;;;;;;;;;3.00;3.00;;;;;25.92;39.79;102051.69;5008253;27;45540;-77
2022/11/30 17:45:07;;;;;;;;;3.33;3.33;;;;;26.04;40.03;102059.66;5027121;28;45453;-79
2022/11/30 17:47:32;;;;;;;;;4.00;3.33;;;;;26.15;39.94;102053.97;5030201;28;45626;-82
2022/11/30 17:49:58;;;;;;;;;4.00;4.00;;;;;26.25;39.75;102061.22;5029490;27;45463;-90
2022/11/30 17:52:23;;;;;;;;;4.00;4.00;;;;;26.30;39.56;102054.31;5029246;27;45851;-81
2022/11/30 17:54:48;;;;;;;;;4.00;4.00;;;;;26.38;40.00;102058.13;5030215;28;45355;-80
2022/11/30 17:57:14;;;;;;;;;4.00;4.00;;;;;26.41;39.55;102058.66;5037154;27;45905;-80
2022/11/30 17:59:39;;;;;;;;;6.00;4.00;;;;;26.43;39.40;102063.94;5047963;27;54484;-81
2022/11/30 18:02:04;;;;;;;;;4.67;4.67;;;;;26.41;39.78;102058.66;5031707;28;45544;-84
2022/11/30 18:04:30;;;;;;;;;6.00;4.33;;;;;26.39;39.66;102048.94;5032437;28;45481;-82
2022/11/30 18:06:56;;;;;;;;;6.00;4.67;;;;;26.37;39.75;102061.84;5032217;27;46638;-76
2022/11/30 18:09:23;;;;;;;;;4.67;4.67;;;;;26.36;39.76;102058.25;5023141;28;45808;-76
2022/11/30 18:11:48;;;;;;;;;5.00;5.00;;;;;26.37;39.51;102061.84;5028427;28;45493;-78
2022/11/30 18:14:14;;;;;;;;;5.33;4.00;;;;;26.38;39.66;102064.44;5028712;27;45700;-77
2022/11/30 18:16:39;;;;;;;;;6.67;5.33;;;;;26.41;39.90;102071.41;5024038;28;46150;-76
2022/11/30 18:19:11;;;;;;;;;5.67;4.33;;;;;26.43;39.51;102066.66;5027855;28;45464;-76
2022/11/30 18:21:42;;;;;;;;;9.67;6.67;;;;;26.54;39.78;102071.03;5031029;28;45417;-78
2022/11/30 18:24:09;;;;;;;;;5.00;5.00;;;;;26.57;39.76;102077.00;5030893;28;45468;-79
2022/11/30 18:26:34;;;;;;;;;4.00;4.00;;;;;26.58;39.79;102070.53;5020648;28;46635;-79
2022/11/30 18:29:00;;;;;;;;;4.00;4.00;;;;;26.61;39.70;102072.13;5028214;27;46115;-77
2022/11/30 18:31:28;;;;;;;;;5.33;5.33;;;;;26.62;39.70;102072.94;5029792;27;45514;-77
2022/11/30 18:33:54;;;;;;;;;4.33;4.33;;;;;26.60;39.19;102064.94;5028920;27;45371;-76
2022/11/30 18:36:20;;;;;;;;;7.33;5.33;;;;;26.63;39.30;102066.50;5029868;27;46117;-76
2022/11/30 18:38:45;;;;;;;;;5.67;5.00;;;;;26.65;39.66;102076.22;5028924;28;45439;-76
2022/11/30 18:41:11;;;;;;;;;6.00;4.00;;;;;26.68;39.59;102075.03;5026639;28;45656;-78
2022/11/30 18:43:37;;;;;;;;;5.67;4.00;;;;;26.69;39.67;102074.88;5028856;28;57284;-77